Time;durP1;ratioP1;P1;durP2;ratioP2;P2;SDS_P1;SDS_P2;PMS_P1;PMS_P2;Temp;Humidity;BMP_temperature;BMP_pressure;BME280_temperature;BME280_humidity;BME280_pressure;Samples;Min_cycle;Max_cycle;Signal;HPM_P1;HPM_P2
2024/04/18 00:00:26;;;;;;;30.63;16.58;;;;;;;5.66;65.07;99498.59;5194709;27;94579;-74
2024/04/18 00:02:51;;;;;;;29.02;15.15;;;;;;;5.83;65.05;99531.16;5206747;27;94511;-74
2024/04/18 00:05:30;;;;;;;28.45;15.20;;;;;;;5.83;65.26;99528.56;5233196;27;94507;-74
2024/04/18 00:07:55;;;;;;;27.02;14.88;;;;;;;5.53;65.05;99481.63;5234336;27;94504;-74
2024/04/18 00:10:21;;;;;;;28.38;14.95;;;;;;;5.81;65.24;99528.59;5234411;26;94452;-74
2024/04/18 00:12:46;;;;;;;25.85;13.75;;;;;;;5.86;65.26;99529.31;5205281;27;94703;-74
2024/04/18 00:15:22;;;;;;;28.27;15.25;;;;;;;5.64;65.17;99503.03;5233754;26;94478;-74
2024/04/18 00:17:53;;;;;;;25.90;14.25;;;;;;;5.53;65.08;99473.81;5177744;27;97586;-74
2024/04/18 00:20:22;;;;;;;30.95;15.38;;;;;;;5.90;64.99;99530.97;5206491;27;94524;-74
2024/04/18 00:22:48;;;;;;;25.67;14.63;;;;;;;5.67;65.27;99504.66;5206969;27;94628;-74
2024/04/18 00:25:13;;;;;;;31.23;15.10;;;;;;;5.71;65.02;99508.06;5233283;27;94461;-74
2024/04/18 00:27:51;;;;;;;29.40;15.20;;;;;;;5.62;65.16;99491.78;5236026;26;94537;-74
2024/04/18 00:30:41;;;;;;;26.83;13.98;;;;;;;5.87;65.40;99535.38;5233502;27;94516;-74
2024/04/18 00:33:07;;;;;;;27.20;13.75;;;;;;;5.88;65.21;99530.16;5201036;27;94387;-73
2024/04/18 00:35:39;;;;;;;30.73;13.85;;;;;;;5.94;65.60;99538.72;5205059;27;94564;-74
2024/04/18 00:38:14;;;;;;;27.70;14.63;;;;;;;5.89;65.57;99533.59;5207483;26;98290;-74
2024/04/18 00:40:40;;;;;;;29.00;14.50;;;;;;;5.63;65.46;99498.69;5233967;27;94433;-74
2024/04/18 00:43:19;;;;;;;26.73;14.68;;;;;;;5.85;65.56;99539.81;5209217;27;94555;-74
2024/04/18 00:45:50;;;;;;;;;;;;;;;5.82;65.79;99545.09;5234209;27;94207;-75
2024/04/18 00:48:19;;;;;;;27.55;14.88;;;;;;;5.85;65.71;99543.25;5206272;27;94525;-75
2024/04/18 00:50:45;;;;;;;23.13;13.90;;;;;;;5.87;65.68;99546.66;5210287;27;94456;-75
2024/04/18 00:53:19;;;;;;;28.50;13.90;;;;;;;5.87;65.47;99543.19;5208146;27;94644;-74
2024/04/18 00:55:49;;;;;;;27.58;16.23;;;;;;;5.82;65.54;99539.88;5233016;27;94457;-74
2024/04/18 00:58:15;;;;;;;30.48;13.80;;;;;;;5.70;65.55;99537.59;5172329;27;97376;-74
2024/04/18 01:00:42;;;;;;;24.10;13.40;;;;;;;5.76;65.43;99550.44;5193436;27;94530;-74
2024/04/18 01:03:26;;;;;;;27.30;14.77;;;;;;;5.71;65.61;99539.31;5232907;27;94548;-74
2024/04/18 01:06:07;;;;;;;23.90;12.87;;;;;;;5.70;65.56;99524.56;5233288;27;97237;-74
2024/04/18 01:08:51;;;;;;;32.17;15.85;;;;;;;5.72;65.57;99543.63;5233719;27;94482;-74
2024/04/18 01:11:28;;;;;;;24.63;13.48;;;;;;;5.67;65.47;99528.97;5234442;27;94478;-74
2024/04/18 01:13:54;;;;;;;28.80;13.82;;;;;;;5.49;65.95;99521.63;5205880;26;94744;-74
2024/04/18 01:16:20;;;;;;;26.67;13.63;;;;;;;5.66;65.92;99545.47;5233375;27;97375;-74
2024/04/18 01:18:46;;;;;;;24.35;12.52;;;;;;;5.71;65.77;99553.19;5232676;26;94472;-74
2024/04/18 01:21:15;;;;;;;21.77;13.50;;;;;;;5.65;66.06;99541.19;5206535;27;95281;-73
2024/04/18 01:23:40;;;;;;;23.30;11.85;;;;;;;5.74;66.25;99545.28;5221336;26;94635;-73
2024/04/18 01:26:10;;;;;;;23.98;11.77;;;;;;;5.62;66.20;99514.38;5225482;27;94507;-73
2024/04/18 01:28:35;;;;;;;21.80;11.43;;;;;;;5.62;66.45;99517.81;5204996;27;94592;-73
2024/04/18 01:31:01;;;;;;;22.08;11.85;;;;;;;5.88;66.29;99558.81;5235027;27;94422;-74
2024/04/18 01:33:26;;;;;;;19.73;11.35;;;;;;;5.89;66.76;99563.09;5235281;26;94558;-73
2024/04/18 01:35:52;;;;;;;19.05;10.65;;;;;;;5.62;66.81;99514.38;5205129;27;97186;-73
2024/04/18 01:38:20;;;;;;;19.30;10.80;;;;;;;5.71;66.90;99519.34;5213500;27;98146;-73
2024/04/18 01:40:46;;;;;;;17.52;11.40;;;;;;;5.72;66.91;99526.25;5200393;27;94586;-73
2024/04/18 01:43:30;;;;;;;18.90;10.25;;;;;;;5.77;66.50;99526.97;5235288;27;95081;-74
2024/04/18 01:46:14;;;;;;;18.10;10.43;;;;;;;5.91;66.97;99542.25;5233536;27;94502;-73
2024/04/18 01:48:57;;;;;;;16.05;10.02;;;;;;;5.81;67.16;99531.19;5183913;27;97679;-73
2024/04/18 01:51:42;;;;;;;20.02;10.90;;;;;;;5.96;67.04;99556.00;5235560;27;94490;-73
2024/04/18 01:54:28;;;;;;;16.20;10.55;;;;;;;6.08;67.00;99565.25;5209290;27;94668;-73
2024/04/18 01:56:54;;;;;;;16.48;10.30;;;;;;;6.11;66.71;99565.19;5233493;27;94444;-73
2024/04/18 01:59:22;;;;;;;19.10;10.93;;;;;;;6.12;67.21;99572.09;5234002;26;94536;-73
2024/04/18 02:01:48;;;;;;;19.13;10.90;;;;;;;6.07;67.01;99553.97;5233550;27;94553;-73
2024/04/18 02:04:14;;;;;;;16.58;10.75;;;;;;;6.20;67.13;99575.34;5204614;27;94566;-73
2024/04/18 02:06:42;;;;;;;20.00;10.75;;;;;;;6.18;67.38;99566.69;5233084;27;94535;-74
2024/04/18 02:09:22;;;;;;;17.58;10.80;;;;;;;6.02;67.31;99537.63;5232258;27;94777;-73
2024/04/18 02:11:48;;;;;;;15.38;10.63;;;;;;;6.29;67.13;99569.00;5234692;26;94536;-74
2024/04/18 02:14:34;;;;;;;17.55;9.80;;;;;;;6.31;67.40;99569.81;5234331;26;94526;-73
2024/04/18 02:16:59;;;;;;;16.20;10.65;;;;;;;6.26;67.58;99576.91;5207590;26;96969;-73
2024/04/18 02:19:25;;;;;;;14.13;9.98;;;;;;;6.16;67.53;99552.84;5200628;27;97639;-74
2024/04/18 02:21:57;;;;;;;17.23;10.65;;;;;;;6.35;67.80;99582.72;5202739;27;94504;-74
2024/04/18 02:25:05;;;;;;;14.63;9.13;;;;;;;6.28;67.91;99578.59;5224396;27;94604;-73
2024/04/18 02:27:30;;;;;;;16.25;9.65;;;;;;;6.05;67.78;99529.72;5235034;27;93468;-73
2024/04/18 02:30:16;;;;;;;15.82;9.27;;;;;;;6.30;67.74;99561.13;5234932;27;94914;-73
2024/04/18 02:32:41;;;;;;;14.35;8.48;;;;;;;6.19;67.57;99533.66;5207450;27;94685;-73
2024/04/18 02:35:12;;;;;;;18.00;9.75;;;;;;;6.32;67.75;99563.72;5234765;26;94556;-74
2024/04/18 02:37:38;;;;;;;14.85;8.85;;;;;;;5.97;67.51;99499.56;5235037;27;94457;-73
2024/04/18 02:40:04;;;;;;;14.07;8.27;;;;;;;6.15;67.70;99542.47;5206850;27;94578;-73
2024/04/18 02:42:38;;;;;;;17.00;9.35;;;;;;;6.16;68.01;99550.25;5235768;27;94524;-74
2024/04/18 02:45:03;;;;;;;15.85;9.70;;;;;;;6.31;67.91;99573.28;5178923;27;94485;-73
2024/04/18 02:47:50;;;;;;;16.35;10.52;;;;;;;6.26;67.39;99563.88;5189001;27;95103;-73
2024/04/18 02:50:35;;;;;;;18.55;12.52;;;;;;;6.25;67.53;99581.25;5234616;26;94892;-73
2024/04/18 02:53:01;;;;;;;16.45;10.77;;;;;;;6.16;67.60;99567.63;5235573;26;94564;-73
2024/04/18 02:55:26;;;;;;;17.95;10.40;;;;;;;5.93;67.45;99539.56;5235057;26;94515;-73
2024/04/18 02:57:54;;;;;;;19.80;11.75;;;;;;;5.89;67.57;99536.22;5236670;26;94421;-73
2024/04/18 03:00:20;;;;;;;17.08;10.88;;;;;;;6.05;67.66;99566.19;5236142;26;94549;-73
2024/04/18 03:03:05;;;;;;;18.45;10.90;;;;;;;6.04;67.62;99577.50;5211604;27;94584;-74
2024/04/18 03:05:31;;;;;;;18.25;11.27;;;;;;;5.87;67.72;99546.66;5236365;27;94542;-74
2024/04/18 03:07:57;;;;;;;16.77;10.55;;;;;;;5.89;68.05;99547.47;5234852;27;93441;-74
2024/04/18 03:10:23;;;;;;;17.70;9.98;;;;;;;6.04;67.75;99587.06;5234494;27;94615;-73
2024/04/18 03:12:57;;;;;;;15.32;10.43;;;;;;;5.80;68.12;99537.31;5235518;27;94510;-74
2024/04/18 03:15:45;;;;;;;15.57;9.95;;;;;;;6.12;68.33;99587.72;5235045;27;94514;-73
2024/04/18 03:18:11;;;;;;;18.63;10.80;;;;;;;5.99;68.63;99578.50;5233896;27;94590;-73
2024/04/18 03:20:38;;;;;;;14.48;9.93;;;;;;;5.89;68.73;99557.03;5234749;26;94487;-74
2024/04/18 03:23:07;;;;;;;16.52;10.85;;;;;;;5.84;68.39;99546.75;5236908;26;94558;-74
2024/04/18 03:25:52;;;;;;;15.98;11.02;;;;;;;6.12;68.20;99582.50;5210226;27;94425;-73
2024/04/18 03:28:18;;;;;;;15.70;9.63;;;;;;;6.12;68.25;99590.31;5235714;27;94605;-73
2024/04/18 03:30:43;;;;;;;15.18;9.50;;;;;;;6.06;68.43;99575.72;5234285;26;94557;-73
2024/04/18 03:33:09;;;;;;;16.98;10.98;;;;;;;5.90;68.43;99556.13;5223775;27;96191;-73
2024/04/18 03:35:38;;;;;;;13.75;8.68;;;;;;;6.02;68.49;99568.88;5178323;27;94480;-73
2024/04/18 03:38:13;;;;;;;20.23;10.10;;;;;;;6.08;68.67;99594.78;5234754;26;94522;-74
2024/04/18 03:40:39;;;;;;;17.08;10.25;;;;;;;6.20;68.45;99596.19;5234002;26;96633;-74
2024/04/18 03:43:05;;;;;;;17.27;9.55;;;;;;;6.25;68.50;99596.88;5234907;26;94580;-73
2024/04/18 03:45:30;;;;;;;13.55;9.52;;;;;;;6.11;68.54;99580.81;5219566;27;94607;-73
2024/04/18 03:48:16;;;;;;;17.83;10.23;;;;;;;6.19;68.83;99598.81;5235112;26;94834;-74
2024/04/18 03:50:44;;;;;;;15.45;10.05;;;;;;;6.24;68.44;99609.97;5227154;26;94544;-73
2024/04/18 03:53:19;;;;;;;14.13;9.55;;;;;;;6.20;68.70;99593.59;5232258;26;94547;-73
2024/04/18 03:55:45;;;;;;;15.32;10.23;;;;;;;6.17;68.80;99598.00;5184139;27;94445;-73
2024/04/18 03:58:10;;;;;;;17.63;9.98;;;;;;;5.88;69.04;99565.78;5229328;27;95299;-73
2024/04/18 04:00:48;;;;;;;14.60;9.35;;;;;;;6.00;69.03;99585.44;5208330;27;95732;-73
2024/04/18 04:03:13;;;;;;;14.20;8.68;;;;;;;6.16;68.79;99609.34;5234891;27;94502;-73
2024/04/18 04:05:39;;;;;;;15.45;8.85;;;;;;;6.18;68.38;99599.72;5184417;27;94559;-73
2024/04/18 04:08:05;;;;;;;16.55;9.50;;;;;;;6.12;68.39;99572.94;5199275;27;97122;-73
2024/04/18 04:10:41;;;;;;;21.55;9.15;;;;;;;6.07;68.26;99566.97;5208349;27;97425;-73
2024/04/18 04:13:07;;;;;;;18.90;9.57;;;;;;;6.09;68.24;99585.19;5234312;27;94549;-73
2024/04/18 04:15:48;;;;;;;18.63;9.30;;;;;;;6.25;68.38;99609.91;5204238;27;94507;-74
2024/04/18 04:18:33;;;;;;;17.30;9.52;;;;;;;6.01;68.13;99566.31;5208316;26;94454;-74
2024/04/18 04:21:18;;;;;;;12.95;8.38;;;;;;;6.37;67.78;99631.34;5226607;26;94686;-76
2024/04/18 04:23:44;;;;;;;17.60;9.73;;;;;;;6.30;68.09;99635.88;5222348;27;95142;-73
2024/04/18 04:26:09;;;;;;;14.98;9.30;;;;;;;6.11;67.91;99594.69;5224946;27;94707;-75
2024/04/18 04:28:35;;;;;;;17.05;9.95;;;;;;;6.21;67.60;99610.91;5227022;27;97491;-74
2024/04/18 04:31:00;;;;;;;15.55;9.30;;;;;;;6.44;67.75;99652.00;5204438;27;94631;-73
2024/04/18 04:33:32;;;;;;;16.80;9.50;;;;;;;6.46;67.77;99659.78;5227741;26;95246;-75
2024/04/18 04:35:57;;;;;;;;;;;;;;;6.32;68.34;99652.34;5199550;26;93406;-75
2024/04/18 04:38:23;;;;;;;16.05;10.30;;;;;;;6.16;68.08;99614.53;5230705;26;94570;-75
2024/04/18 04:40:49;;;;;;;14.35;9.57;;;;;;;6.37;67.88;99647.88;5225782;27;94642;-76
2024/04/18 04:43:14;;;;;;;16.58;9.95;;;;;;;6.39;67.75;99647.81;5196759;27;94618;-76
2024/04/18 04:45:40;;;;;;;14.80;9.57;;;;;;;6.20;67.75;99614.44;5199284;27;94586;-76
2024/04/18 04:48:06;;;;;;;17.80;9.43;;;;;;;6.54;67.50;99655.19;5217908;26;94466;-75
2024/04/18 04:50:32;;;;;;;15.77;9.88;;;;;;;6.61;67.75;99661.97;5232580;26;94575;-76
2024/04/18 04:53:12;;;;;;;15.50;8.77;;;;;;;6.40;67.63;99636.47;5199117;27;94503;-75
2024/04/18 04:55:57;;;;;;;14.40;8.90;;;;;;;6.48;67.49;99632.75;5228405;27;94567;-75
2024/04/18 04:58:23;;;;;;;20.70;10.48;;;;;;;6.62;67.36;99660.19;5199857;27;97286;-76
2024/04/18 05:00:49;;;;;;;15.30;9.20;;;;;;;6.48;67.57;99629.28;5189826;27;94589;-77
2024/04/18 05:03:34;;;;;;;22.15;9.93;;;;;;;6.72;67.39;99666.84;5222721;26;94619;-76
2024/04/18 05:06:20;;;;;;;23.10;9.95;;;;;;;6.53;67.35;99624.81;5231210;27;95050;-76
2024/04/18 05:09:06;;;;;;;16.98;9.52;;;;;;;6.82;67.31;99673.53;5208945;27;94666;-83
2024/04/18 05:11:32;;;;;;;21.60;10.13;;;;;;;6.76;67.05;99658.91;5231925;27;94541;-82
2024/04/18 05:13:57;;;;;;;19.27;9.52;;;;;;;6.42;67.33;99616.44;5234952;26;94587;-79
2024/04/18 05:16:43;;;;;;;17.70;8.27;;;;;;;6.78;67.27;99669.31;5233413;27;94542;-78
2024/04/18 05:19:11;;;;;;;15.98;7.95;;;;;;;6.74;67.15;99665.91;5204799;27;97104;-79
2024/04/18 05:21:37;;;;;;;13.48;8.68;;;;;;;6.86;67.26;99656.88;5234744;27;94525;-79
2024/04/18 05:24:21;;;;;;;14.95;9.15;;;;;;;6.94;66.64;99646.22;5234433;26;95211;-77
2024/04/18 05:26:46;;;;;;;13.18;9.27;;;;;;;7.07;66.57;99675.41;5235192;27;94622;-78
2024/04/18 05:31:59;;;;;;;14.63;8.57;;;;;;;7.24;65.95;99649.63;5234442;27;94529;-78
2024/04/18 05:34:25;;;;;;;19.77;9.93;;;;;;;7.49;65.68;99671.47;5233327;26;94605;-78
2024/04/18 05:36:50;;;;;;;12.48;7.57;;;;;;;7.63;65.26;99673.66;5229901;27;95894;-78
2024/04/18 05:39:16;;;;;;;14.80;8.93;;;;;;;7.59;65.26;99648.56;5215423;27;94920;-77
2024/04/18 05:41:41;;;;;;;14.38;8.48;;;;;;;7.75;64.91;99677.63;5233516;27;94557;-79
2024/04/18 05:44:29;;;;;;;16.13;9.48;;;;;;;7.87;64.48;99666.75;5234529;27;94613;-77
2024/04/18 05:46:55;;;;;;;16.83;10.70;;;;;;;8.13;64.13;99683.34;5232789;27;94625;-78
2024/04/18 05:49:21;;;;;;;16.17;9.13;;;;;;;8.05;63.65;99669.66;5232918;26;93513;-78
2024/04/18 05:51:46;;;;;;;14.70;8.68;;;;;;;8.04;63.60;99652.28;5232893;27;94715;-78
2024/04/18 05:54:31;;;;;;;16.00;10.37;;;;;;;8.25;63.13;99661.16;5231025;27;94592;-79
2024/04/18 05:57:06;;;;;;;16.13;9.60;;;;;;;8.06;63.12;99637.41;5195769;27;94562;-77
2024/04/18 05:59:51;;;;;;;16.00;9.45;;;;;;;8.43;63.35;99691.06;5203573;27;96488;-78
2024/04/18 06:02:17;;;;;;;16.35;9.80;;;;;;;8.26;63.34;99662.84;5183032;27;95250;-78
2024/04/18 06:04:42;;;;;;;18.13;9.82;;;;;;;8.13;63.54;99649.34;5233171;27;94595;-79
2024/04/18 06:07:26;;;;;;;15.48;9.45;;;;;;;8.54;63.30;99704.63;5227571;26;94763;-78
2024/04/18 06:09:51;;;;;;;13.52;8.88;;;;;;;8.15;63.57;99669.31;5191495;27;95423;-80
2024/04/18 06:12:17;;;;;;;17.33;9.90;;;;;;;8.11;64.30;99695.59;5233176;27;94569;-79
2024/04/18 06:14:43;;;;;;;13.88;9.00;;;;;;;8.09;64.25;99703.50;5234122;27;94553;-79
2024/04/18 06:17:08;;;;;;;12.63;8.85;;;;;;;8.02;64.50;99690.69;5217127;26;94662;-78
2024/04/18 06:19:50;;;;;;;14.98;9.35;;;;;;;7.85;64.92;99699.97;5209509;26;94586;-78
2024/04/18 06:22:31;;;;;;;14.63;9.55;;;;;;;8.07;63.94;99668.72;5228307;26;95027;-78
2024/04/18 06:25:18;;;;;;;15.85;9.68;;;;;;;8.91;62.37;99698.91;5223840;27;94527;-78
2024/04/18 06:27:44;;;;;;;24.83;10.70;;;;;;;9.36;61.11;99673.63;5175572;27;94645;-77
2024/04/18 06:30:10;;;;;;;13.27;8.65;;;;;;;16.69;47.18;99663.75;5231813;27;94598;-78
2024/04/18 06:32:39;;;;;;;13.27;7.80;;;;;;;19.04;39.74;99667.59;5231741;26;94668;-76
2024/04/18 06:35:05;;;;;;;10.43;6.95;;;;;;;18.10;40.26;99668.66;5174066;27;94729;-76
2024/04/18 06:37:31;;;;;;;11.30;6.68;;;;;;;18.59;39.39;99698.59;5231127;27;95021;-75
2024/04/18 06:39:57;;;;;;;12.63;6.30;;;;;;;23.23;34.17;99694.91;5202681;27;97620;-76
2024/04/18 06:42:23;;;;;;;10.55;6.80;;;;;;;32.02;23.67;99682.53;5230649;27;97155;-78
2024/04/18 06:44:48;;;;;;;17.00;7.35;;;;;;;34.99;19.76;99671.50;5223582;27;94665;-79
2024/04/18 06:47:14;;;;;;;8.02;5.63;;;;;;;34.67;19.24;99694.28;5230197;27;94637;-78
2024/04/18 06:49:59;;;;;;;11.70;6.38;;;;;;;36.56;17.58;99695.16;5222225;27;96902;-78
2024/04/18 06:52:25;;;;;;;15.13;7.03;;;;;;;37.14;17.03;99708.81;5168725;27;97348;-78
2024/04/18 06:54:50;;;;;;;8.27;5.72;;;;;;;29.23;23.51;99711.00;5225831;27;95492;-78
2024/04/18 06:57:35;;;;;;;6.28;5.00;;;;;;;26.08;26.38;99707.78;5227629;27;94760;-78
2024/04/18 07:00:01;;;;;;;7.00;5.07;;;;;;;25.10;27.51;99726.25;5231760;26;94163;-78
2024/04/18 07:02:26;;;;;;;8.43;5.80;;;;;;;25.49;27.13;99716.72;5202165;26;96999;-78
2024/04/18 07:05:10;;;;;;;6.55;4.88;;;;;;;34.40;18.78;99690.13;5231910;27;94614;-78
2024/04/18 07:07:44;;;;;;;6.57;4.97;;;;;;;27.27;25.11;99717.91;5232099;27;94696;-78
2024/04/18 07:10:30;;;;;;;7.13;5.03;;;;;;;27.74;24.95;99719.69;5207377;27;97540;-78
2024/04/18 07:12:55;;;;;;;11.15;5.43;;;;;;;23.94;28.61;99695.06;5200590;27;97797;-77
2024/04/18 07:15:21;;;;;;;9.15;5.75;;;;;;;20.44;32.93;99704.94;5197900;27;94785;-77
2024/04/18 07:18:06;;;;;;;7.47;6.20;;;;;;;18.12;37.43;99719.00;5202788;27;94613;-77
2024/04/18 07:20:32;;;;;;;8.82;6.63;;;;;;;16.66;39.26;99724.06;5233590;26;94539;-77
2024/04/18 07:23:03;;;;;;;;;;;;;;;15.70;41.59;99745.44;5233803;26;93502;-78
2024/04/18 07:25:29;;;;;;;10.55;6.68;;;;;;;14.95;43.15;99744.81;5235060;26;94680;-76
2024/04/18 07:27:54;;;;;;;10.55;6.70;;;;;;;14.31;43.91;99717.84;5228960;26;94794;-78
2024/04/18 07:30:20;;;;;;;12.60;7.05;;;;;;;13.95;45.32;99705.81;5174977;27;97652;-77
2024/04/18 07:32:46;;;;;;;11.05;6.18;;;;;;;13.88;45.79;99754.63;5228957;26;95425;-77
2024/04/18 07:35:12;;;;;;;10.27;6.35;;;;;;;13.76;46.50;99756.16;5228992;27;94623;-77
2024/04/18 07:37:39;;;;;;;11.00;6.30;;;;;;;13.35;47.15;99717.13;5231448;27;94518;-77
2024/04/18 07:40:11;;;;;;;12.82;6.32;;;;;;;13.65;47.17;99744.50;5220360;26;94817;-77
2024/04/18 07:42:37;;;;;;;8.25;6.15;;;;;;;13.91;46.19;99732.50;5194005;27;98072;-77
2024/04/18 07:45:03;;;;;;;7.57;5.57;;;;;;;14.47;45.06;99739.75;5229713;27;95293;-76
2024/04/18 07:47:28;;;;;;;8.73;5.95;;;;;;;14.99;44.35;99745.50;5227897;26;93673;-78
2024/04/18 07:49:54;;;;;;;10.35;5.90;;;;;;;15.04;44.57;99751.34;5199668;27;94647;-77
2024/04/18 07:52:19;;;;;;;11.40;6.32;;;;;;;15.14;44.51;99755.97;5202827;26;97338;-77
2024/04/18 07:54:45;;;;;;;8.88;5.97;;;;;;;15.11;44.55;99758.81;5225575;27;94785;-77
2024/04/18 07:57:11;;;;;;;9.30;6.60;;;;;;;14.90;43.96;99728.41;5230359;26;94786;-77
2024/04/18 07:59:36;;;;;;;10.32;6.68;;;;;;;14.40;45.06;99772.75;5228011;26;94826;-77
2024/04/18 08:02:02;;;;;;;10.25;7.28;;;;;;;14.11;46.20;99750.66;5229291;26;94690;-77
2024/04/18 08:04:27;;;;;;;9.85;6.65;;;;;;;13.62;47.23;99758.72;5228308;26;94718;-77
2024/04/18 08:06:53;;;;;;;9.52;6.03;;;;;;;13.34;47.70;99756.72;5200860;27;94638;-77
2024/04/18 08:09:18;;;;;;;8.65;6.05;;;;;;;12.86;48.30;99740.81;5173766;27;97048;-77
2024/04/18 08:11:44;;;;;;;9.40;5.70;;;;;;;12.48;49.48;99765.63;5229257;26;94635;-77
2024/04/18 08:14:09;;;;;;;10.07;6.35;;;;;;;11.78;50.96;99761.09;5227744;26;95122;-77
2024/04/18 08:16:35;;;;;;;13.07;6.93;;;;;;;11.82;51.24;99767.06;5199085;27;93638;-77
2024/04/18 08:19:00;;;;;;;11.25;6.75;;;;;;;11.78;51.30;99752.38;5226207;27;94577;-77
2024/04/18 08:21:27;;;;;;;14.95;6.95;;;;;;;11.99;50.87;99750.50;5223684;27;94708;-77
2024/04/18 08:23:52;;;;;;;15.80;7.05;;;;;;;12.21;51.02;99774.81;5228233;26;94601;-77
2024/04/18 08:26:18;;;;;;;7.97;5.60;;;;;;;11.86;50.88;99715.19;5200092;27;94711;-77
2024/04/18 08:28:43;;;;;;;8.50;6.28;;;;;;;11.93;50.11;99742.91;5227265;27;94584;-78
2024/04/18 08:31:09;;;;;;;8.15;4.95;;;;;;;12.20;50.21;99785.44;5227742;27;97524;-77
2024/04/18 08:33:34;;;;;;;7.93;6.03;;;;;;;12.63;49.46;99775.38;5226652;26;94740;-77
2024/04/18 08:36:00;;;;;;;7.07;4.78;;;;;;;13.92;49.67;99765.84;5199888;27;95097;-73
2024/04/18 08:38:26;;;;;;;7.88;5.05;;;;;;;14.24;47.28;99769.28;5197481;27;95085;-77
2024/04/18 08:40:52;;;;;;;6.38;4.57;;;;;;;13.13;49.06;99779.78;5223462;27;97330;-78
2024/04/18 08:43:17;;;;;;;4.82;3.58;;;;;;;12.43;49.27;99779.03;5225538;26;94737;-77
2024/04/18 08:45:43;;;;;;;4.72;2.90;;;;;;;12.16;49.45;99792.63;5229347;27;95571;-79
2024/04/18 08:48:10;;;;;;;5.82;3.30;;;;;;;11.86;49.68;99752.00;5218780;27;94618;-79
2024/04/18 08:50:37;;;;;;;8.18;3.88;;;;;;;11.94;50.11;99757.75;5228860;27;95510;-78
2024/04/18 08:53:04;;;;;;;6.28;3.65;;;;;;;14.05;46.68;99743.13;5229025;27;94826;-76
2024/04/18 08:55:32;;;;;;;8.73;4.68;;;;;;;17.19;41.09;99744.25;5224684;27;93640;-77
2024/04/18 08:58:04;;;;;;;7.13;4.45;;;;;;;16.14;42.74;99762.84;5228794;27;94711;-77
2024/04/18 09:00:29;;;;;;;5.97;4.07;;;;;;;15.03;44.86;99776.06;5194266;27;96824;-77
2024/04/18 09:02:55;;;;;;;6.68;4.05;;;;;;;14.61;44.92;99788.28;5226434;26;94686;-78
2024/04/18 09:05:21;;;;;;;7.20;4.35;;;;;;;13.92;46.71;99779.03;5221656;26;94765;-76
2024/04/18 09:07:46;;;;;;;4.68;3.25;;;;;;;13.30;47.44;99795.59;5229010;27;94605;-76
2024/04/18 09:10:12;;;;;;;6.63;2.45;;;;;;;12.64;47.06;99791.09;5228027;26;95196;-76
2024/04/18 09:12:37;;;;;;;4.53;2.55;;;;;;;12.65;47.71;99797.19;5230729;26;94640;-77
2024/04/18 09:15:06;;;;;;;5.60;2.67;;;;;;;13.00;47.29;99798.03;5231906;26;94795;-77
2024/04/18 09:17:31;;;;;;;4.90;2.90;;;;;;;12.75;47.83;99798.44;5196474;27;95525;-79
2024/04/18 09:19:57;;;;;;;6.03;3.22;;;;;;;12.45;48.31;99777.19;5228685;27;94663;-78
2024/04/18 09:22:22;;;;;;;4.72;3.22;;;;;;;12.63;47.93;99770.97;5229500;26;94692;-79
2024/04/18 09:24:48;;;;;;;3.70;2.75;;;;;;;13.45;46.15;99800.97;5230491;26;94802;-77
2024/04/18 09:27:14;;;;;;;3.72;2.80;;;;;;;16.26;41.41;99795.63;5226767;27;94629;-78
2024/04/18 09:29:40;;;;;;;4.18;3.17;;;;;;;17.72;38.56;99769.72;5227214;26;94653;-76
2024/04/18 09:32:06;;;;;;;5.13;3.60;;;;;;;18.60;38.11;99756.97;5230202;27;95124;-77
2024/04/18 09:34:34;;;;;;;6.40;3.20;;;;;;;19.51;36.42;99757.91;5224186;27;94653;-82
2024/04/18 09:37:04;;;;;;;6.35;3.28;;;;;;;19.82;34.88;99773.13;5228732;27;94051;-77
2024/04/18 09:39:32;;;;;;;5.97;3.20;;;;;;;18.87;35.45;99756.69;5223428;27;94726;-77
2024/04/18 09:42:05;;;;;;;6.93;3.58;;;;;;;19.52;34.88;99778.22;5226062;27;94685;-77
2024/04/18 09:44:31;;;;;;;6.60;3.88;;;;;;;19.37;34.06;99743.91;5196250;27;94640;-77
2024/04/18 09:46:58;;;;;;;8.43;4.28;;;;;;;19.47;33.98;99764.44;5228637;27;95362;-77
2024/04/18 09:49:24;;;;;;;3.90;2.67;;;;;;;18.75;34.14;99731.88;5227910;27;97354;-79
2024/04/18 09:51:51;;;;;;;4.72;3.00;;;;;;;17.56;36.21;99792.03;5225057;27;94781;-78
2024/04/18 09:54:17;;;;;;;6.95;3.35;;;;;;;16.01;40.07;99796.41;5226239;27;93623;-79
2024/04/18 09:56:45;;;;;;;4.68;3.55;;;;;;;15.11;42.08;99795.81;5232580;27;94646;-78
2024/04/18 09:59:12;;;;;;;5.50;3.67;;;;;;;14.67;43.03;99801.97;5230377;27;94671;-78
2024/04/18 10:01:38;;;;;;;7.15;3.83;;;;;;;14.46;44.05;99801.44;5225730;27;94663;-78
2024/04/18 10:04:04;;;;;;;5.45;3.85;;;;;;;14.37;44.66;99782.59;5189119;27;93677;-78
2024/04/18 10:06:33;;;;;;;9.32;4.93;;;;;;;14.59;45.15;99776.97;5223056;27;95152;-78
2024/04/18 10:09:00;;;;;;;4.70;3.95;;;;;;;15.64;42.90;99737.84;5198012;27;97923;-79
2024/04/18 10:11:25;;;;;;;6.25;4.13;;;;;;;17.06;41.00;99785.84;5219837;27;94785;-79
2024/04/18 10:13:51;;;;;;;5.93;4.50;;;;;;;17.91;40.40;99793.97;5228350;27;94697;-78
2024/04/18 10:16:17;;;;;;;5.28;4.05;;;;;;;16.63;41.89;99780.78;5222992;26;94125;-78
2024/04/18 10:18:44;;;;;;;5.85;4.13;;;;;;;16.03;42.07;99797.16;5203089;27;97752;-78
2024/04/18 10:21:14;;;;;;;6.10;4.15;;;;;;;15.66;42.79;99809.22;5226849;27;95658;-78
2024/04/18 10:23:50;;;;;;;6.25;3.88;;;;;;;15.51;41.78;99811.88;5197982;27;94930;-78
2024/04/18 10:26:16;;;;;;;6.30;4.13;;;;;;;15.14;41.97;99792.97;5225221;27;95257;-79
2024/04/18 10:28:42;;;;;;;7.10;4.30;;;;;;;15.09;41.75;99812.72;5225147;27;94699;-78
2024/04/18 10:31:08;;;;;;;5.30;3.45;;;;;;;14.91;41.19;99806.75;5198145;27;94823;-78
2024/04/18 10:33:38;;;;;;;4.93;3.60;;;;;;;15.47;40.39;99794.47;5230511;26;94678;-79
2024/04/18 10:36:23;;;;;;;7.70;3.50;;;;;;;16.92;40.28;99812.44;5205276;27;94773;-79
2024/04/18 10:38:49;;;;;;;4.78;3.30;;;;;;;17.21;39.83;99805.13;5223906;26;94792;-79
2024/04/18 10:41:17;;;;;;;7.63;3.20;;;;;;;17.79;38.26;99811.66;5231805;27;94730;-78
2024/04/18 10:43:43;;;;;;;3.72;2.05;;;;;;;17.56;37.51;99805.28;5215584;26;94555;-78
2024/04/18 10:46:10;;;;;;;5.15;2.60;;;;;;;16.74;37.17;99804.75;5204335;27;97510;-78
2024/04/18 10:48:36;;;;;;;9.88;2.60;;;;;;;16.47;36.78;99762.44;5200713;27;97960;-79
2024/04/18 10:51:03;;;;;;;5.53;2.50;;;;;;;17.07;37.30;99810.53;5174911;27;94664;-78
2024/04/18 10:53:33;;;;;;;2.95;2.08;;;;;;;17.03;35.96;99791.34;5197340;27;94512;-78
2024/04/18 10:55:58;;;;;;;14.52;3.22;;;;;;;17.49;34.85;99788.13;5189029;27;98147;-78
2024/04/18 10:58:24;;;;;;;7.00;2.00;;;;;;;17.98;34.70;99800.56;5196775;27;98220;-79
2024/04/18 11:00:55;;;;;;;8.75;2.53;;;;;;;17.94;35.56;99809.69;5203875;27;94711;-72
2024/04/18 11:03:21;;;;;;;4.45;2.50;;;;;;;17.30;36.05;99774.47;5231319;27;94620;-75
2024/04/18 11:05:46;;;;;;;8.95;4.85;;;;;;;17.15;35.93;99813.50;5228427;26;97869;-75
2024/04/18 11:08:21;;;;;;;3.03;1.75;;;;;;;16.70;36.65;99813.03;5230395;27;94608;-74
2024/04/18 11:10:46;;;;;;;3.17;1.67;;;;;;;16.26;37.98;99828.28;5166870;27;94743;-76
2024/04/18 11:13:13;;;;;;;3.67;1.42;;;;;;;15.44;38.88;99826.41;5223686;26;94843;-74
2024/04/18 11:15:40;;;;;;;1.90;1.30;;;;;;;15.26;40.49;99796.66;5168555;27;97933;-76
2024/04/18 11:18:05;;;;;;;2.55;1.80;;;;;;;15.68;40.64;99829.38;5225074;27;94727;-74
2024/04/18 11:20:32;;;;;;;2.75;1.90;;;;;;;15.88;40.90;99833.38;5214112;27;94815;-75
2024/04/18 11:22:57;;;;;;;3.50;1.95;;;;;;;16.23;39.28;99825.84;5192332;27;94674;-74
2024/04/18 11:25:23;;;;;;;5.80;2.42;;;;;;;16.53;38.15;99817.66;5227998;27;94782;-74
2024/04/18 11:28:04;;;;;;;4.68;1.73;;;;;;;16.35;37.76;99813.59;5227148;26;94741;-75
2024/04/18 11:30:30;;;;;;;3.78;1.88;;;;;;;15.94;36.92;99793.31;5194887;27;95252;-74
2024/04/18 11:32:55;;;;;;;3.67;1.90;;;;;;;16.06;38.29;99804.91;5194363;27;94746;-74
2024/04/18 11:35:21;;;;;;;3.88;1.95;;;;;;;16.00;37.65;99829.13;5229250;27;95229;-75
2024/04/18 11:37:47;;;;;;;9.32;2.30;;;;;;;15.60;37.95;99815.72;5200165;27;96211;-74
2024/04/18 11:40:13;;;;;;;7.38;2.00;;;;;;;15.41;36.76;99784.28;5194987;27;94704;-75
2024/04/18 11:42:39;;;;;;;4.95;1.65;;;;;;;15.64;35.93;99822.53;5221040;27;96309;-74
2024/04/18 11:45:04;;;;;;;9.07;2.03;;;;;;;15.69;36.36;99777.28;5200051;27;94698;-76